Time;durP1;ratioP1;P1;durP2;ratioP2;P2;SDS_P1;SDS_P2;PMS_P1;PMS_P2;Temp;Humidity;BMP_temperature;BMP_pressure;BME280_temperature;BME280_humidity;BME280_pressure;Samples;Min_cycle;Max_cycle;Signal;HPM_P1;HPM_P2
2023/09/22 00:01:54;;;;;;;21.38;13.93;;;;;;;16.68;99.25;100163.63;5065773;28;20067;-38
2023/09/22 00:04:20;;;;;;;23.23;14.43;;;;;;;16.59;99.58;100152.75;5074413;28;20041;-39
2023/09/22 00:06:47;;;;;;;25.73;15.05;;;;;;;16.62;100.00;100163.94;5074983;28;20053;-39
2023/09/22 00:09:13;;;;;;;25.20;14.88;;;;;;;16.62;100.00;100166.56;5099347;28;20085;-38
2023/09/22 00:11:39;;;;;;;33.97;19.17;;;;;;;16.62;100.00;100171.81;5073057;28;20052;-38
2023/09/22 00:14:06;;;;;;;20.63;14.35;;;;;;;16.63;100.00;100162.16;5079429;28;20098;-38
2023/09/22 00:16:34;;;;;;;23.02;14.82;;;;;;;16.60;100.00;100164.91;5066194;28;20040;-38
2023/09/22 00:19:05;;;;;;;26.92;16.65;;;;;;;16.63;100.00;100162.16;5071704;28;20120;-38
2023/09/22 00:21:34;;;;;;;34.45;19.35;;;;;;;16.64;100.00;100169.97;5077299;28;20045;-39
2023/09/22 00:24:01;;;;;;;;;;;;;;;16.64;100.00;100167.34;5071637;28;20028;-38
2023/09/22 00:26:27;;;;;;;31.90;17.50;;;;;;;16.46;100.00;100142.81;5083065;28;20553;-39
2023/09/22 00:28:53;;;;;;;24.38;14.68;;;;;;;16.61;100.00;100170.09;5073062;28;20123;-37
2023/09/22 00:31:19;;;;;;;27.00;15.27;;;;;;;16.59;100.00;100171.94;5064891;28;20397;-39
2023/09/22 00:33:44;;;;;;;28.40;16.40;;;;;;;16.49;100.00;100166.28;5057177;28;20029;-38
2023/09/22 00:36:10;;;;;;;23.27;16.00;;;;;;;16.54;100.00;100176.53;5080549;28;20048;-37
2023/09/22 00:38:37;;;;;;;26.45;14.80;;;;;;;16.51;100.00;100169.69;5083108;28;20046;-38
2023/09/22 00:41:03;;;;;;;27.40;14.77;;;;;;;16.48;100.00;100169.00;5077198;28;20075;-39
2023/09/22 00:43:29;;;;;;;23.48;14.93;;;;;;;16.19;100.00;100127.63;5059881;28;20075;-38
2023/09/22 00:45:55;;;;;;;25.02;14.75;;;;;;;16.44;100.00;100165.66;5079902;28;20048;-39
2023/09/22 00:48:25;;;;;;;20.70;13.80;;;;;;;16.42;100.00;100174.56;5064110;28;20115;-39
2023/09/22 00:50:53;;;;;;;24.10;14.02;;;;;;;16.40;100.00;100174.63;5059582;28;20032;-38
2023/09/22 00:53:19;;;;;;;22.88;13.93;;;;;;;16.40;100.00;100165.91;5077214;28;20055;-38
2023/09/22 00:55:49;;;;;;;26.17;13.25;;;;;;;16.44;100.00;100172.69;5077596;28;20040;-38
2023/09/22 00:58:15;;;;;;;20.50;13.45;;;;;;;16.47;100.00;100168.16;5056885;28;20047;-39
2023/09/22 01:00:43;;;;;;;24.55;14.32;;;;;;;16.51;100.00;100174.09;5058771;28;20404;-39
2023/09/22 01:03:10;;;;;;;22.85;13.23;;;;;;;16.53;100.00;100162.59;5062838;28;20071;-38
2023/09/22 01:05:36;;;;;;;23.80;13.68;;;;;;;16.41;100.00;100144.00;5072878;28;20059;-38
2023/09/22 01:08:02;;;;;;;25.77;14.60;;;;;;;16.62;100.00;100170.94;5078916;28;20104;-38
2023/09/22 01:10:35;;;;;;;23.75;14.20;;;;;;;16.65;100.00;100163.75;5077218;28;20040;-37
2023/09/22 01:13:02;;;;;;;22.33;13.40;;;;;;;16.73;100.00;100163.38;5070676;28;20091;-37
2023/09/22 01:15:28;;;;;;;18.88;13.23;;;;;;;16.78;99.69;100162.22;5080629;28;20028;-39
2023/09/22 01:17:54;;;;;;;19.30;12.13;;;;;;;16.83;99.56;100167.22;5070757;28;20127;-38
2023/09/22 01:20:22;;;;;;;20.83;13.93;;;;;;;16.88;99.18;100171.31;5079448;28;20110;-37
2023/09/22 01:22:48;;;;;;;20.83;13.38;;;;;;;16.90;98.72;100174.69;5070595;28;20130;-38
2023/09/22 01:25:14;;;;;;;21.13;13.18;;;;;;;16.93;98.58;100168.44;5080286;28;20584;-38
2023/09/22 01:27:40;;;;;;;22.85;13.50;;;;;;;17.02;98.20;100172.34;5073712;28;20071;-38
2023/09/22 01:30:09;;;;;;;21.38;12.63;;;;;;;17.05;97.78;100170.41;5059609;28;20064;-38
2023/09/22 01:32:37;;;;;;;;;;;;;;;17.02;97.36;100167.09;5071478;28;20141;-39
2023/09/22 01:35:07;;;;;;;25.30;13.82;;;;;;;16.92;97.64;100170.19;5077389;28;19939;-38
2023/09/22 01:37:37;;;;;;;21.83;14.27;;;;;;;16.87;97.59;100160.88;5060641;28;20047;-38
2023/09/22 01:40:03;;;;;;;19.80;13.88;;;;;;;16.88;97.63;100180.94;5060931;28;20043;-39
2023/09/22 01:42:30;;;;;;;21.70;13.68;;;;;;;16.84;97.93;100177.66;5073867;28;20504;-39
2023/09/22 01:44:56;;;;;;;19.48;13.95;;;;;;;16.79;98.03;100174.41;5072160;28;20530;-37
2023/09/22 01:47:22;;;;;;;24.70;14.30;;;;;;;16.74;98.62;100172.94;5068480;28;20068;-39
2023/09/22 01:49:48;;;;;;;21.08;13.75;;;;;;;16.70;98.92;100174.88;5078133;28;20075;-39
2023/09/22 01:52:14;;;;;;;21.58;13.43;;;;;;;16.53;99.38;100165.22;5075892;28;20071;-39
2023/09/22 01:54:40;;;;;;;23.17;14.20;;;;;;;16.61;99.47;100174.50;5073922;28;20463;-38
2023/09/22 01:57:06;;;;;;;25.50;15.10;;;;;;;16.58;99.94;100193.88;5060203;28;20479;-38
2023/09/22 01:59:32;;;;;;;21.30;15.13;;;;;;;16.42;100.00;100159.66;5075341;28;20127;-39
2023/09/22 02:01:57;;;;;;;28.85;14.65;;;;;;;16.52;100.00;100176.66;5075450;28;20041;-38
2023/09/22 02:04:23;;;;;;;22.40;15.02;;;;;;;16.48;100.00;100180.34;5081412;28;20043;-39
2023/09/22 02:06:49;;;;;;;31.40;15.55;;;;;;;16.45;100.00;100180.50;5062571;28;20058;-39
2023/09/22 02:09:15;;;;;;;24.85;14.95;;;;;;;16.34;100.00;100159.19;5077479;28;20036;-38
2023/09/22 02:11:41;;;;;;;23.38;14.13;;;;;;;16.31;100.00;100158.50;5077311;28;20036;-39
2023/09/22 02:14:07;;;;;;;21.58;14.13;;;;;;;16.45;100.00;100184.88;5063798;28;20052;-38
2023/09/22 02:16:33;;;;;;;22.90;15.18;;;;;;;16.42;100.00;100187.69;5062959;28;20127;-38
2023/09/22 02:18:59;;;;;;;22.90;14.77;;;;;;;16.37;100.00;100181.81;5043203;28;20151;-37
2023/09/22 02:21:27;;;;;;;22.30;14.68;;;;;;;16.35;100.00;100181.88;5080253;28;20082;-38
2023/09/22 02:24:12;;;;;;;23.90;14.80;;;;;;;16.37;100.00;100182.66;5069983;28;20566;-38
2023/09/22 02:26:38;;;;;;;26.48;14.30;;;;;;;16.35;100.00;100189.75;5076041;28;20048;-38
2023/09/22 02:29:04;;;;;;;23.17;14.90;;;;;;;16.19;100.00;100170.44;5076915;28;20122;-38
2023/09/22 02:31:32;;;;;;;20.25;15.13;;;;;;;16.30;100.00;100201.41;5076322;28;20037;-38
2023/09/22 02:33:58;;;;;;;21.33;14.80;;;;;;;16.30;100.00;100198.78;5067700;28;20406;-38
2023/09/22 02:36:24;;;;;;;23.58;15.25;;;;;;;16.36;100.00;100195.88;5079324;28;20419;-38
2023/09/22 02:38:50;;;;;;;24.33;14.90;;;;;;;16.43;100.00;100197.25;5076534;28;20093;-42
2023/09/22 02:41:17;;;;;;;24.48;14.98;;;;;;;16.49;100.00;100189.06;5054337;28;20043;-38
2023/09/22 02:43:43;;;;;;;21.05;14.57;;;;;;;16.54;100.00;100195.78;5068711;28;20048;-41
2023/09/22 02:46:09;;;;;;;24.25;14.15;;;;;;;16.38;100.00;100170.41;5074447;28;20420;-38
2023/09/22 02:48:35;;;;;;;24.02;15.07;;;;;;;16.49;100.00;100200.41;5072876;28;20043;-38
2023/09/22 02:51:05;;;;;;;22.83;14.85;;;;;;;16.43;100.00;100203.34;5073846;28;20068;-41
2023/09/22 02:53:31;;;;;;;21.85;14.25;;;;;;;16.40;100.00;100206.13;5054661;28;20060;-37
2023/09/22 02:55:58;;;;;;;21.17;14.60;;;;;;;16.36;100.00;100198.47;5073651;28;20044;-38
2023/09/22 02:58:24;;;;;;;20.60;14.40;;;;;;;16.35;100.00;100202.03;5056070;28;20063;-39
2023/09/22 03:00:51;;;;;;;22.75;14.25;;;;;;;16.34;100.00;100202.94;5075241;28;20052;-38
2023/09/22 03:03:17;;;;;;;19.70;14.65;;;;;;;16.32;100.00;100207.44;5060314;28;20044;-39
2023/09/22 03:05:43;;;;;;;25.35;16.73;;;;;;;16.31;100.00;100210.97;5070750;28;20055;-37
2023/09/22 03:08:09;;;;;;;28.27;16.08;;;;;;;16.32;100.00;100210.06;5077476;28;20052;-38
2023/09/22 03:10:38;;;;;;;25.58;15.85;;;;;;;16.19;100.00;100191.44;5078414;28;20036;-38
2023/09/22 03:13:04;;;;;;;25.85;16.27;;;;;;;16.38;100.00;100217.63;5077661;28;20071;-37
2023/09/22 03:15:30;;;;;;;24.40;15.38;;;;;;;16.44;100.00;100219.94;5072592;28;20074;-38
2023/09/22 03:17:57;;;;;;;25.27;16.40;;;;;;;16.48;100.00;100217.09;5074723;28;20068;-38
2023/09/22 03:20:23;;;;;;;19.35;14.70;;;;;;;16.53;100.00;100219.50;5069217;28;20093;-37
2023/09/22 03:22:49;;;;;;;24.73;15.52;;;;;;;16.52;100.00;100213.41;5064129;28;20037;-38
2023/09/22 03:25:15;;;;;;;21.48;14.90;;;;;;;16.49;100.00;100191.69;5050202;28;20032;-38
2023/09/22 03:27:42;;;;;;;31.10;16.70;;;;;;;16.68;100.00;100216.13;5067904;28;20040;-40
2023/09/22 03:30:11;;;;;;;31.20;16.33;;;;;;;16.72;100.00;100212.41;5075810;28;20440;-39
2023/09/22 03:32:39;;;;;;;29.13;15.60;;;;;;;16.80;100.00;100220.72;5058629;28;20040;-38
2023/09/22 03:35:08;;;;;;;;;;;;;;;16.86;99.79;100211.69;5073670;28;20044;-38
2023/09/22 03:37:34;;;;;;;24.45;14.68;;;;;;;16.90;99.28;100211.44;5073954;28;19950;-38
2023/09/22 03:40:13;;;;;;;26.38;16.75;;;;;;;16.97;99.13;100221.66;5054593;28;20533;-38
2023/09/22 03:42:43;;;;;;;34.55;19.02;;;;;;;17.02;98.87;100220.47;5073748;28;20831;-44
2023/09/22 03:45:10;;;;;;;25.38;17.50;;;;;;;17.08;98.79;100228.03;5064712;28;20138;-38
2023/09/22 03:47:36;;;;;;;30.23;16.92;;;;;;;17.12;98.36;100221.69;5053638;28;20056;-39
2023/09/22 03:50:03;;;;;;;28.15;16.45;;;;;;;17.10;98.10;100225.34;5075337;28;20568;-39
2023/09/22 03:52:30;;;;;;;23.88;14.70;;;;;;;17.06;98.03;100223.81;5075919;28;20125;-38
2023/09/22 03:54:55;;;;;;;27.77;17.33;;;;;;;17.00;98.22;100227.59;5072941;28;20090;-38
2023/09/22 03:57:22;;;;;;;29.80;16.63;;;;;;;16.97;98.38;100230.38;5082147;28;20047;-38
2023/09/22 03:59:49;;;;;;;24.67;16.30;;;;;;;16.94;98.54;100230.53;5081095;28;20044;-37
2023/09/22 04:02:15;;;;;;;26.98;16.73;;;;;;;16.90;98.50;100229.84;5078153;28;20519;-39
2023/09/22 04:04:41;;;;;;;30.50;17.40;;;;;;;16.88;98.98;100242.22;5087473;28;20033;-38
2023/09/22 04:07:07;;;;;;;29.85;17.00;;;;;;;16.86;99.21;100232.69;5079905;28;20391;-38
2023/09/22 04:09:32;;;;;;;29.58;17.80;;;;;;;16.86;99.32;100244.06;5080947;28;20436;-40
2023/09/22 04:11:58;;;;;;;27.45;17.38;;;;;;;16.87;99.13;100243.13;5079365;28;20052;-38
2023/09/22 04:14:24;;;;;;;27.45;17.02;;;;;;;16.88;99.17;100242.22;5078478;28;20032;-39
2023/09/22 04:16:51;;;;;;;24.70;16.80;;;;;;;16.91;99.14;100246.44;5061451;28;20435;-38
2023/09/22 04:19:18;;;;;;;29.88;16.35;;;;;;;16.79;99.09;100219.06;5084421;28;20036;-38
2023/09/22 04:21:46;;;;;;;48.65;18.02;;;;;;;16.80;99.11;100214.66;5079392;28;20031;-39
2023/09/22 04:24:12;;;;;;;34.13;16.58;;;;;;;17.00;99.24;100247.78;5080773;28;20440;-39
2023/09/22 04:26:44;;;;;;;27.30;16.58;;;;;;;16.76;99.14;100198.19;5076279;28;20472;-38
2023/09/22 04:29:11;;;;;;;33.30;16.42;;;;;;;17.07;98.99;100247.34;5080624;28;20515;-38
2023/09/22 04:31:37;;;;;;;26.33;16.17;;;;;;;17.12;99.17;100249.75;5078560;28;20044;-38
2023/09/22 04:34:03;;;;;;;28.38;16.67;;;;;;;17.18;98.82;100247.66;5084095;28;20044;-38
2023/09/22 04:36:31;;;;;;;34.80;16.83;;;;;;;17.06;98.74;100216.75;5075134;28;20121;-39
2023/09/22 04:38:57;;;;;;;36.92;17.83;;;;;;;17.32;98.50;100247.75;5067128;28;20742;-38
2023/09/22 04:41:23;;;;;;;38.05;17.65;;;;;;;17.37;97.89;100258.06;5074425;28;20056;-38
2023/09/22 04:43:52;;;;;;;34.75;18.08;;;;;;;17.46;97.68;100256.72;5074106;28;20602;-39
2023/09/22 04:46:19;;;;;;;47.13;18.55;;;;;;;17.52;97.35;100257.25;5077711;28;20508;-37
2023/09/22 04:48:46;;;;;;;39.10;17.58;;;;;;;17.61;97.14;100258.53;5072018;28;20042;-38
2023/09/22 04:51:14;;;;;;;37.50;18.17;;;;;;;17.69;96.84;100254.56;5064849;28;20029;-39
2023/09/22 04:53:41;;;;;;;30.20;17.50;;;;;;;17.65;96.42;100237.25;5080804;28;20047;-39
2023/09/22 04:56:08;;;;;;;29.30;16.98;;;;;;;17.76;95.94;100223.50;5079751;28;20043;-39
2023/09/22 04:58:37;;;;;;;29.27;17.50;;;;;;;17.90;95.35;100235.94;5059754;28;20036;-38
2023/09/22 05:01:04;;;;;;;31.80;16.67;;;;;;;18.15;94.88;100255.50;5073516;28;20041;-38
2023/09/22 05:03:31;;;;;;;27.58;16.23;;;;;;;18.14;94.33;100240.66;5080697;28;20551;-38
2023/09/22 05:06:09;;;;;;;33.88;17.10;;;;;;;18.38;93.51;100259.44;5069846;28;20052;-38
2023/09/22 05:08:38;;;;;;;32.42;17.85;;;;;;;18.50;92.81;100260.53;5073128;28;20037;-38
2023/09/22 05:11:08;;;;;;;32.50;17.35;;;;;;;18.45;92.36;100238.91;5073616;28;20048;-39
2023/09/22 05:13:35;;;;;;;35.88;17.80;;;;;;;18.72;91.61;100265.44;5081796;28;20173;-40
2023/09/22 05:16:13;;;;;;;36.72;17.60;;;;;;;18.80;91.02;100260.56;5073341;28;20068;-39
2023/09/22 05:18:39;;;;;;;33.58;18.75;;;;;;;18.81;90.45;100243.81;5096722;28;20047;-38
2023/09/22 05:21:06;;;;;;;30.33;18.63;;;;;;;19.07;89.82;100272.09;5073282;28;20072;-37
2023/09/22 05:23:32;;;;;;;31.15;19.20;;;;;;;19.20;89.16;100270.44;5076725;28;20040;-39
2023/09/22 05:25:59;;;;;;;39.20;19.45;;;;;;;19.06;88.47;100228.22;5077822;28;20048;-39
2023/09/22 05:28:25;;;;;;;32.40;18.92;;;;;;;19.48;87.93;100271.41;5081747;28;20048;-38
2023/09/22 05:30:51;;;;;;;29.75;18.77;;;;;;;19.48;87.45;100245.88;5078357;28;20046;-40
2023/09/22 05:33:17;;;;;;;31.63;18.05;;;;;;;19.84;86.47;100277.03;5079868;28;20048;-39
2023/09/22 05:35:42;;;;;;;29.52;19.15;;;;;;;20.07;85.62;100289.63;5079629;28;20144;-37
2023/09/22 05:38:09;;;;;;;30.00;17.45;;;;;;;20.30;84.56;100285.53;5077587;28;20033;-39
2023/09/22 05:40:36;;;;;;;32.63;18.85;;;;;;;20.57;83.49;100283.72;5080502;28;20044;-38
2023/09/22 05:43:10;;;;;;;32.40;18.58;;;;;;;20.97;81.86;100295.16;5071340;28;20119;-38
2023/09/22 05:45:36;;;;;;;24.27;14.80;;;;;;;21.49;79.01;100279.22;5058452;28;20050;-38
2023/09/22 05:48:02;;;;;;;23.13;14.77;;;;;;;22.01;75.65;100295.88;5078671;28;20040;-39
2023/09/22 05:50:28;;;;;;;22.33;14.05;;;;;;;22.54;72.94;100297.28;5077549;28;20047;-38
2023/09/22 05:52:54;;;;;;;20.42;14.23;;;;;;;23.06;71.10;100297.72;5052761;28;20041;-38
2023/09/22 05:55:20;;;;;;;21.02;13.52;;;;;;;23.54;68.95;100294.94;5070109;28;20044;-38
2023/09/22 05:57:51;;;;;;;25.80;13.73;;;;;;;24.12;66.66;100301.78;5076607;28;20066;-38
2023/09/22 06:00:18;;;;;;;19.90;13.52;;;;;;;24.52;64.64;100280.78;5079066;28;20042;-39
2023/09/22 06:02:47;;;;;;;17.65;13.15;;;;;;;25.48;62.39;100305.44;5074709;28;20508;-38
2023/09/22 06:05:14;;;;;;;24.05;13.00;;;;;;;26.29;60.21;100301.81;5065839;28;20110;-39
2023/09/22 06:07:40;;;;;;;19.63;12.82;;;;;;;26.88;57.14;100306.25;5034761;28;20469;-38
2023/09/22 06:10:08;;;;;;;17.27;12.48;;;;;;;27.34;54.63;100313.47;5051893;28;20545;-38
2023/09/22 06:12:34;;;;;;;17.85;12.85;;;;;;;27.75;53.03;100299.72;5064734;28;20102;-39
2023/09/22 06:15:00;;;;;;;18.05;12.32;;;;;;;28.20;50.88;100307.84;5053566;28;20087;-38
2023/09/22 06:17:26;;;;;;;20.05;12.85;;;;;;;28.65;49.64;100312.28;5051228;28;20579;-38
2023/09/22 06:19:52;;;;;;;17.63;12.73;;;;;;;29.28;48.08;100309.47;5068130;28;20147;-39
2023/09/22 06:22:18;;;;;;;18.88;12.02;;;;;;;29.25;46.86;100316.00;5071284;28;20129;-39
2023/09/22 06:24:43;;;;;;;19.25;12.88;;;;;;;29.40;45.80;100321.66;5069395;28;20040;-39
2023/09/22 06:27:09;;;;;;;16.90;12.38;;;;;;;29.74;45.12;100310.94;5068572;28;20036;-39
2023/09/22 06:29:35;;;;;;;15.68;12.48;;;;;;;30.18;44.38;100311.66;5060030;28;20036;-39
2023/09/22 06:32:01;;;;;;;19.10;13.13;;;;;;;31.09;42.78;100315.19;5061731;28;20059;-39
2023/09/22 06:34:27;;;;;;;17.95;12.90;;;;;;;31.32;42.12;100310.75;5070719;28;20048;-41
2023/09/22 06:36:53;;;;;;;15.45;11.73;;;;;;;31.37;41.04;100304.88;5044138;28;20521;-38
2023/09/22 06:39:19;;;;;;;16.55;10.95;;;;;;;31.77;40.33;100317.41;5061738;28;20048;-39
2023/09/22 06:41:45;;;;;;;15.45;11.35;;;;;;;31.53;40.35;100299.47;5075758;28;20033;-38
2023/09/22 06:44:12;;;;;;;17.08;11.45;;;;;;;31.45;40.62;100315.63;5067774;28;20148;-39
2023/09/22 06:46:38;;;;;;;16.20;10.80;;;;;;;32.07;39.75;100316.59;5076381;28;20131;-39
2023/09/22 06:49:07;;;;;;;19.50;11.25;;;;;;;32.61;38.84;100312.06;5075483;28;20123;-39
2023/09/22 06:51:36;;;;;;;19.85;10.65;;;;;;;33.32;37.57;100320.81;5064075;28;20584;-39
2023/09/22 06:54:03;;;;;;;16.38;10.32;;;;;;;33.66;36.24;100323.78;5074536;28;20066;-39
2023/09/22 06:56:29;;;;;;;16.97;11.50;;;;;;;33.63;35.64;100319.63;5076701;28;20044;-38
2023/09/22 06:58:55;;;;;;;13.68;10.57;;;;;;;34.07;35.48;100316.09;5073520;28;20075;-38
2023/09/22 07:01:21;;;;;;;16.20;10.38;;;;;;;34.16;34.42;100308.72;5078933;28;20063;-39
2023/09/22 07:03:48;;;;;;;12.82;10.30;;;;;;;34.55;34.04;100319.97;5052673;28;20044;-39
2023/09/22 07:06:15;;;;;;;16.92;10.70;;;;;;;34.23;33.79;100320.47;5080151;28;20065;-40
2023/09/22 07:08:43;;;;;;;12.55;9.82;;;;;;;33.69;34.13;100325.34;5089299;28;20043;-39
2023/09/22 07:11:10;;;;;;;16.00;9.77;;;;;;;33.40;34.40;100293.75;5076049;28;20044;-39
2023/09/22 07:13:37;;;;;;;18.30;9.80;;;;;;;33.49;34.45;100322.31;5065388;28;20040;-39
2023/09/22 07:16:03;;;;;;;17.45;10.88;;;;;;;33.66;33.82;100331.88;5075249;28;20040;-39
2023/09/22 07:18:29;;;;;;;17.77;11.18;;;;;;;33.24;34.92;100324.41;5069834;28;20043;-39
2023/09/22 07:20:56;;;;;;;17.17;11.38;;;;;;;32.68;35.39;100325.72;5067985;28;20037;-38
2023/09/22 07:23:23;;;;;;;15.38;11.05;;;;;;;32.88;35.57;100324.19;5057056;28;20043;-39
2023/09/22 07:26:01;;;;;;;15.85;11.90;;;;;;;33.12;35.03;100328.56;5072999;28;20048;-38
2023/09/22 07:28:28;;;;;;;17.80;11.45;;;;;;;33.57;34.67;100320.38;5073140;28;20484;-39
2023/09/22 07:30:54;;;;;;;22.00;11.38;;;;;;;34.28;33.76;100326.13;5070788;28;20097;-40
2023/09/22 07:33:20;;;;;;;18.00;10.40;;;;;;;34.36;33.33;100324.13;5050414;28;20135;-38
2023/09/22 07:35:49;;;;;;;17.42;10.68;;;;;;;35.01;32.69;100322.31;5058483;28;20041;-40
2023/09/22 07:38:18;;;;;;;18.25;10.48;;;;;;;35.25;32.12;100325.44;5071608;28;20131;-40
2023/09/22 07:40:44;;;;;;;14.43;9.32;;;;;;;35.05;30.82;100324.44;5079365;28;20032;-41
2023/09/22 07:43:10;;;;;;;20.13;10.23;;;;;;;34.20;31.74;100320.81;5076933;28;20564;-41
2023/09/22 07:45:36;;;;;;;13.80;10.07;;;;;;;34.03;31.83;100328.25;5070221;28;20045;-40
2023/09/22 07:48:02;;;;;;;17.00;10.18;;;;;;;34.23;31.31;100329.38;5076566;28;20147;-42
2023/09/22 07:50:29;;;;;;;21.15;10.02;;;;;;;34.97;30.59;100332.66;5074487;28;20123;-41
2023/09/22 07:52:56;;;;;;;19.40;10.65;;;;;;;34.68;30.53;100338.19;5074616;28;20584;-40
2023/09/22 07:55:23;;;;;;;14.77;10.30;;;;;;;34.16;31.18;100335.69;5071081;28;20431;-39
2023/09/22 07:57:50;;;;;;;20.65;11.23;;;;;;;34.15;30.85;100336.72;5066317;28;20291;-40
2023/09/22 08:00:18;;;;;;;15.68;10.60;;;;;;;34.24;31.09;100319.41;5068477;28;20061;-40
2023/09/22 08:02:50;;;;;;;18.70;10.82;;;;;;;35.27;30.63;100333.38;5073262;28;20115;-40
2023/09/22 08:05:15;;;;;;;19.83;11.52;;;;;;;35.78;29.33;100330.38;5078028;28;20040;-39
2023/09/22 08:07:42;;;;;;;16.60;10.38;;;;;;;35.99;29.14;100333.00;5079277;28;20059;-40
2023/09/22 08:10:10;;;;;;;12.50;9.53;;;;;;;35.33;29.35;100315.53;5069339;28;20044;-41
2023/09/22 08:12:37;;;;;;;15.00;10.35;;;;;;;35.01;29.77;100330.41;5061347;28;20040;-39
2023/09/22 08:15:04;;;;;;;16.90;9.00;;;;;;;34.94;29.32;100337.63;5080453;28;20074;-39
2023/09/22 08:17:31;;;;;;;14.45;9.20;;;;;;;34.66;29.42;100332.97;5079522;28;20044;-38
2023/09/22 08:19:57;;;;;;;18.35;10.52;;;;;;;34.75;29.99;100329.16;5063202;28;20094;-39
2023/09/22 08:22:25;;;;;;;15.30;8.93;;;;;;;35.08;29.21;100342.09;5080988;28;20484;-38
2023/09/22 08:24:50;;;;;;;12.07;7.40;;;;;;;34.55;28.29;100336.16;5078762;28;20093;-40
2023/09/22 08:27:16;;;;;;;14.88;7.30;;;;;;;34.56;27.67;100328.91;5079464;28;20064;-39
2023/09/22 08:29:42;;;;;;;15.35;7.30;;;;;;;34.65;27.72;100331.28;5071398;28;20040;-40
2023/09/22 08:32:08;;;;;;;10.95;6.80;;;;;;;34.87;27.62;100340.25;5080785;28;20047;-38
2023/09/22 08:34:35;;;;;;;9.98;6.97;;;;;;;34.95;27.06;100336.59;5077754;28;20058;-42
2023/09/22 08:37:01;;;;;;;13.05;7.68;;;;;;;34.99;27.01;100333.31;5079902;28;20074;-40
2023/09/22 08:39:30;;;;;;;13.55;7.45;;;;;;;35.49;26.85;100342.25;5061831;28;20043;-39
2023/09/22 08:41:56;;;;;;;19.38;7.75;;;;;;;35.53;26.64;100341.66;5064337;28;20064;-40
2023/09/22 08:44:22;;;;;;;14.68;7.20;;;;;;;35.83;25.93;100342.28;5071257;28;20174;-39
2023/09/22 08:46:47;;;;;;;14.65;7.20;;;;;;;36.31;24.99;100329.59;5079031;28;20044;-39
2023/09/22 08:49:15;;;;;;;14.13;7.07;;;;;;;36.97;24.64;100351.44;5078278;28;20040;-40
2023/09/22 08:51:41;;;;;;;11.63;6.70;;;;;;;36.85;24.04;100345.78;5082526;28;20043;-38
2023/09/22 08:54:07;;;;;;;22.35;7.00;;;;;;;37.22;23.74;100346.22;5060077;28;20041;-40
2023/09/22 08:56:34;;;;;;;16.10;6.65;;;;;;;36.49;24.54;100351.53;5081113;28;20249;-39
2023/09/22 08:58:59;;;;;;;14.47;6.47;;;;;;;36.67;24.25;100347.44;5075365;28;20497;-40
2023/09/22 09:01:26;;;;;;;13.70;6.88;;;;;;;36.05;24.84;100354.69;5063611;28;20047;-41
2023/09/22 09:03:52;;;;;;;14.30;6.88;;;;;;;35.57;25.12;100342.09;5060571;28;20563;-40
2023/09/22 09:06:19;;;;;;;10.40;6.65;;;;;;;35.64;25.30;100338.38;5078648;28;20143;-39
2023/09/22 09:09:04;;;;;;;13.48;6.47;;;;;;;36.35;24.77;100349.00;5077146;28;20542;-40
2023/09/22 09:11:30;;;;;;;7.85;5.47;;;;;;;35.40;24.64;100341.56;5072025;28;20060;-39
2023/09/22 09:13:56;;;;;;;7.32;6.47;;;;;;;34.68;25.40;100352.56;5040779;28;20040;-42
2023/09/22 09:16:30;;;;;;;8.73;5.80;;;;;;;33.65;25.97;100349.13;5070551;28;20050;-40
2023/09/22 09:19:13;;;;;;;11.13;6.32;;;;;;;33.17;26.78;100345.88;5078408;28;20043;-39
2023/09/22 09:21:38;;;;;;;12.48;5.65;;;;;;;33.14;26.67;100348.06;5069561;28;20619;-40
2023/09/22 09:24:05;;;;;;;10.98;5.70;;;;;;;33.05;26.52;100333.00;5076116;28;20036;-39
2023/09/22 09:26:31;;;;;;;10.32;5.78;;;;;;;33.75;25.85;100336.22;5071297;28;20047;-39
2023/09/22 09:29:01;;;;;;;12.80;5.18;;;;;;;33.90;25.71;100341.59;5078034;28;20040;-39
2023/09/22 09:32:00;;;;;;;10.38;5.97;;;;;;;34.67;25.16;100333.81;5074882;28;20040;-40
2023/09/22 09:34:41;;;;;;;7.05;5.38;;;;;;;34.73;24.42;100335.78;5078407;28;20407;-40
2023/09/22 09:37:14;;;;;;;7.63;5.95;;;;;;;34.18;25.02;100320.97;5077706;28;20125;-42
2023/09/22 09:39:55;;;;;;;14.77;5.50;;;;;;;34.90;24.78;100330.94;5075393;28;20600;-40
2023/09/22 09:42:23;;;;;;;14.02;5.70;;;;;;;35.11;24.40;100336.31;5051819;28;20040;-40
2023/09/22 09:44:54;;;;;;;7.45;5.30;;;;;;;35.11;24.01;100318.25;5059508;28;20545;-40
2023/09/22 09:47:23;;;;;;;8.82;5.00;;;;;;;35.73;23.82;100324.75;5060650;28;20040;-40
2023/09/22 09:49:54;;;;;;;5.93;5.32;;;;;;;36.21;23.05;100329.16;5063046;28;20210;-40
2023/09/22 09:52:29;;;;;;;14.90;6.05;;;;;;;37.22;21.86;100329.97;5079261;28;20564;-38
2023/09/22 09:55:12;;;;;;;7.57;4.82;;;;;;;38.02;20.59;100339.66;5074328;28;20075;-41
2023/09/22 09:57:41;;;;;;;10.15;5.43;;;;;;;38.68;19.73;100323.84;5075904;28;20051;-39
2023/09/22 10:00:12;;;;;;;12.77;5.68;;;;;;;38.77;19.15;100351.63;5067211;28;20040;-39
2023/09/22 10:02:45;;;;;;;7.70;4.88;;;;;;;37.76;19.71;100326.97;5079515;28;20043;-40
2023/09/22 10:05:14;;;;;;;10.18;4.90;;;;;;;37.60;19.85;100333.69;5077313;28;20043;-39
2023/09/22 10:07:42;;;;;;;7.45;4.90;;;;;;;38.08;19.80;100330.66;5077164;28;20066;-41
2023/09/22 10:10:08;;;;;;;8.15;4.38;;;;;;;38.03;19.22;100312.28;5074510;28;20550;-40
2023/09/22 10:12:35;;;;;;;8.07;5.13;;;;;;;38.85;18.75;100315.97;5075555;28;20048;-37
2023/09/22 10:15:04;;;;;;;8.18;5.40;;;;;;;39.76;18.06;100297.13;5076133;28;20571;-40
2023/09/22 10:17:31;;;;;;;13.23;4.97;;;;;;;40.27;17.96;100332.16;5080437;28;20048;-40
2023/09/22 10:20:07;;;;;;;6.57;4.50;;;;;;;39.02;17.43;100319.84;5075524;28;20040;-39
2023/09/22 10:22:33;;;;;;;7.10;4.75;;;;;;;38.84;17.81;100325.19;5073674;28;20468;-40
2023/09/22 10:25:11;;;;;;;9.35;4.72;;;;;;;39.36;17.57;100318.53;5077268;28;20046;-39
2023/09/22 10:27:59;;;;;;;6.82;4.90;;;;;;;39.13;17.54;100307.41;5076693;28;20041;-37
2023/09/22 10:30:46;;;;;;;12.30;4.75;;;;;;;39.87;16.85;100310.03;5066142;28;20048;-39
2023/09/22 10:33:15;;;;;;;10.50;4.65;;;;;;;40.41;16.62;100306.38;5064696;28;20483;-39
2023/09/22 10:35:42;;;;;;;8.88;4.85;;;;;;;40.15;16.63;100307.53;5075154;28;20063;-40
2023/09/22 10:38:11;;;;;;;8.17;4.90;;;;;;;39.89;16.98;100310.59;5073667;28;20486;-40
2023/09/22 10:40:40;;;;;;;5.57;4.88;;;;;;;39.68;17.24;100305.59;5071364;28;20305;-39
2023/09/22 10:43:06;;;;;;;8.82;5.68;;;;;;;40.35;17.13;100301.88;5077141;28;20078;-40
2023/09/22 10:45:32;;;;;;;6.95;4.95;;;;;;;40.58;16.34;100303.81;5058559;28;20469;-38
2023/09/22 10:47:59;;;;;;;7.47;4.70;;;;;;;40.58;16.20;100301.09;5076195;28;20043;-39
2023/09/22 10:50:30;;;;;;;8.50;4.90;;;;;;;41.41;15.80;100306.41;5073884;28;20495;-39
2023/09/22 10:53:04;;;;;;;5.72;5.13;;;;;;;42.11;15.54;100311.78;5079382;28;20159;-38
2023/09/22 10:55:34;;;;;;;9.80;4.97;;;;;;;41.23;15.48;100292.91;5066533;28;20063;-38
2023/09/22 10:58:03;;;;;;;6.78;4.85;;;;;;;40.93;16.03;100293.00;5078974;28;20032;-38
2023/09/22 11:00:32;;;;;;;6.35;5.18;;;;;;;41.53;15.62;100293.63;5069098;28;20040;-39
2023/09/22 11:03:05;;;;;;;10.52;5.63;;;;;;;42.85;15.14;100301.69;5079455;28;20040;-39
2023/09/22 11:05:31;;;;;;;9.23;6.15;;;;;;;41.51;15.16;100256.72;5074657;28;20044;-39
2023/09/22 11:07:57;;;;;;;6.80;5.20;;;;;;;40.44;15.49;100270.47;5075935;28;20535;-39
2023/09/22 11:10:23;;;;;;;7.72;5.60;;;;;;;39.96;16.18;100280.56;5075194;28;20054;-39
2023/09/22 11:12:51;;;;;;;6.50;5.50;;;;;;;40.11;16.10;100283.72;5079589;28;20135;-39
2023/09/22 11:15:17;;;;;;;7.03;5.30;;;;;;;39.59;16.40;100280.56;5071278;28;20041;-40